Augusta, West Virginia
Current Conditions -  °F | °C
As of 3:53 PM on Thursday 20 Nov 2014 (Local Time) from KCBE Reporting Station
Clear Clear  
Wind Chill: -1°   Ceiling: Unl
Heat Index:   Visibility: 10mi
Dew Point: -11°   Wind: 13mph
Humidity: 36%   Direction: 300°WNW
Pressure: 30.02"   Gusts: 22mph
Location:  39.3°N, 78.64°W
Report Text: KCBE 202053Z AUTO 30011G19KT 10SM CLR 03/M11 A3002 RMK AO1
Loading
Personal Weather Stations






























Interactive Weather Map New forecast layout! Learn more

10-Day Weather Forecast

Advertisements
Track Severe Weather on mobile